Time;durP1;ratioP1;P1;durP2;ratioP2;P2;SDS_P1;SDS_P2;PMS_P1;PMS_P2;Temp;Humidity;BMP_temperature;BMP_pressure;BME280_temperature;BME280_humidity;BME280_pressure;Samples;Min_cycle;Max_cycle;Signal;HPM_P1;HPM_P2
2023/07/04 00:02:10;;;;;;;11.30;8.90;;;;;;;27.58;100.00;100566.55;106579;1251;61728;-85
2023/07/04 00:04:59;;;;;;;10.60;8.30;;;;;;;27.57;100.00;100561.30;106287;1252;66190;-85
2023/07/04 00:07:48;;;;;;;12.20;8.60;;;;;;;27.50;100.00;100562.48;106447;1251;61141;-83
2023/07/04 00:10:37;;;;;;;14.60;8.60;;;;;;;27.39;100.00;100562.58;106515;1254;62778;-85
2023/07/04 00:13:26;;;;;;;13.20;9.20;;;;;;;27.40;100.00;100564.27;106441;1256;61346;-86
2023/07/04 00:16:14;;;;;;;11.90;9.00;;;;;;;27.35;100.00;100568.57;106403;1253;61204;-86
2023/07/04 00:19:04;;;;;;;13.30;9.10;;;;;;;27.41;100.00;100571.66;106507;1253;64961;-84
2023/07/04 00:21:51;;;;;;;13.70;8.30;;;;;;;27.45;100.00;100574.32;106468;1254;61278;-85
2023/07/04 00:24:40;;;;;;;12.50;9.50;;;;;;;27.50;100.00;100575.06;106513;1251;62602;-84
2023/07/04 00:27:28;;;;;;;11.90;9.00;;;;;;;27.55;100.00;100575.10;106489;1251;59642;-84
2023/07/04 00:30:16;;;;;;;12.50;9.00;;;;;;;27.54;100.00;100572.44;106432;1255;61171;-84
2023/07/04 00:33:04;;;;;;;12.90;9.20;;;;;;;27.54;100.00;100570.52;106386;1253;65866;-84
2023/07/04 00:36:22;;;;;;;9.80;7.80;;;;;;;27.59;100.00;100570.30;106520;1251;61201;-85
2023/07/04 00:39:10;;;;;;;12.80;8.70;;;;;;;27.65;100.00;100570.81;106684;1254;62578;-87
2023/07/04 00:42:00;;;;;;;12.90;9.40;;;;;;;27.62;100.00;100572.65;106613;1251;61456;-87
2023/07/04 00:44:54;;;;;;;11.50;8.60;;;;;;;27.63;100.00;100576.02;106362;1253;61316;-85
2023/07/04 00:47:46;;;;;;;11.70;8.60;;;;;;;27.66;100.00;100572.99;106586;1254;64769;-87
2023/07/04 00:50:35;;;;;;;12.20;8.60;;;;;;;27.60;100.00;100573.20;106614;1253;61949;-86
2023/07/04 00:53:23;;;;;;;13.00;9.10;;;;;;;27.60;100.00;100573.84;106471;1253;64143;-86
2023/07/04 00:56:12;;;;;;;11.90;8.50;;;;;;;27.58;100.00;100577.52;106628;1256;61211;-85
2023/07/04 00:59:00;;;;;;;11.80;8.40;;;;;;;27.57;100.00;100578.23;106608;1254;61249;-84
2023/07/04 01:01:48;;;;;;;13.20;8.60;;;;;;;27.50;100.00;100581.33;106421;1254;64761;-86
2023/07/04 01:04:37;;;;;;;11.30;8.00;;;;;;;27.45;100.00;100581.77;106192;1251;61377;-86
2023/07/04 01:07:28;;;;;;;11.80;8.60;;;;;;;27.37;100.00;100584.92;106401;1251;63836;-86
2023/07/04 01:10:32;;;;;;;10.90;8.40;;;;;;;27.40;100.00;100586.07;106493;1254;61371;-85
2023/07/04 01:13:36;;;;;;;9.60;8.00;;;;;;;27.40;100.00;100587.76;106474;1253;61295;-85
2023/07/04 01:16:24;;;;;;;10.50;8.10;;;;;;;27.45;100.00;100592.77;106651;1251;66525;-85
2023/07/04 01:19:12;;;;;;;11.70;7.70;;;;;;;27.53;100.00;100596.58;106355;1253;61276;-85
2023/07/04 01:22:19;;;;;;;12.00;8.80;;;;;;;27.48;100.00;100599.59;106458;1256;62633;-83
2023/07/04 02:45:06;;;;;;;11.70;7.90;;;;;;;27.76;100.00;100656.94;106421;1253;61374;-83
2023/07/04 02:47:54;;;;;;;10.70;7.70;;;;;;;27.86;100.00;100658.48;106416;1254;61108;-85
2023/07/04 02:50:42;;;;;;;10.50;8.00;;;;;;;27.93;100.00;100660.98;106291;1254;67019;-84
2023/07/04 02:53:31;;;;;;;12.60;8.20;;;;;;;28.06;100.00;100662.50;106371;1253;61293;-84
2023/07/04 02:56:19;;;;;;;10.20;8.40;;;;;;;28.11;100.00;100664.85;106333;1251;63821;-84
2023/07/04 02:59:08;;;;;;;11.50;8.00;;;;;;;28.15;100.00;100665.76;106397;1251;61343;-85
2023/07/04 03:01:56;;;;;;;12.30;7.90;;;;;;;28.24;100.00;100669.40;106293;1253;61201;-84
2023/07/04 03:04:47;;;;;;;12.80;7.90;;;;;;;28.40;100.00;100672.93;106332;1256;67414;-84
2023/07/04 03:07:36;;;;;;;9.80;7.60;;;;;;;28.51;100.00;100672.44;106350;1256;61356;-84
2023/07/04 03:10:25;;;;;;;15.20;7.70;;;;;;;28.66;100.00;100674.16;106158;1258;63730;-85
2023/07/04 03:13:14;;;;;;;12.60;7.50;;;;;;;28.78;100.00;100674.19;106246;1259;61295;-87
2023/07/04 03:16:02;;;;;;;12.20;8.10;;;;;;;28.98;100.00;100675.34;106499;1254;61347;-85
2023/07/04 03:18:50;;;;;;;11.20;7.20;;;;;;;29.02;100.00;100675.26;106354;1251;64895;-86
2023/07/04 03:21:38;;;;;;;12.60;8.90;;;;;;;29.14;100.00;100677.70;106424;1251;61191;-86
2023/07/04 03:24:26;;;;;;;15.00;8.80;;;;;;;29.38;100.00;100676.98;106448;1254;63889;-84
2023/07/04 03:27:15;;;;;;;12.80;7.70;;;;;;;29.60;100.00;100680.17;106299;1254;61334;-84
2023/07/04 03:30:06;;;;;;;15.10;7.60;;;;;;;29.76;100.00;100681.78;106171;1254;61251;-83
2023/07/04 03:32:54;;;;;;;11.30;7.80;;;;;;;29.80;99.98;100683.07;106263;1254;64862;-86
2023/07/04 03:35:42;;;;;;;12.80;8.40;;;;;;;29.97;99.99;100681.91;106357;1253;61115;-85
2023/07/04 03:38:46;;;;;;;10.40;7.50;;;;;;;30.22;99.19;100682.95;106362;1254;62779;-87
2023/07/04 03:41:33;;;;;;;11.30;8.20;;;;;;;30.39;98.56;100678.70;106171;1253;61266;-86
2023/07/04 03:44:21;;;;;;;11.70;8.20;;;;;;;30.53;97.09;100679.30;106600;1254;61221;-86
2023/07/04 03:47:11;;;;;;;10.80;8.00;;;;;;;30.72;95.23;100680.31;106294;1254;65851;-84
2023/07/04 03:49:59;;;;;;;12.60;8.50;;;;;;;30.80;94.74;100682.52;106292;1254;61224;-87
2023/07/04 03:52:48;;;;;;;10.80;7.90;;;;;;;30.82;94.47;100684.05;106717;1254;63932;-84
2023/07/04 03:55:36;;;;;;;12.30;8.10;;;;;;;30.89;93.25;100687.98;106173;1253;61297;-85
2023/07/04 03:58:24;;;;;;;12.60;7.80;;;;;;;30.96;92.67;100691.48;106306;1256;61157;-84
2023/07/04 04:01:12;;;;;;;12.70;8.40;;;;;;;31.00;91.51;100690.71;106591;1255;66049;-85
2023/07/04 04:04:00;;;;;;;12.40;7.60;;;;;;;31.16;89.21;100691.07;106487;1254;61246;-87
2023/07/04 04:06:49;;;;;;;12.70;8.70;;;;;;;31.29;87.06;100695.48;106239;1253;62799;-85
2023/07/04 04:09:37;;;;;;;13.10;8.00;;;;;;;31.33;86.76;100699.65;106482;1255;61157;-84
2023/07/04 04:12:25;;;;;;;10.70;7.80;;;;;;;31.45;86.45;100696.59;106813;1254;61368;-85
2023/07/04 04:15:13;;;;;;;13.70;8.40;;;;;;;31.64;85.91;100696.90;106192;1256;124896;-85
2023/07/04 04:18:01;;;;;;;11.50;8.10;;;;;;;31.76;84.19;100699.38;106416;1254;60390;-84
2023/07/04 04:20:49;;;;;;;11.90;7.70;;;;;;;31.95;82.22;100696.45;106641;1254;64129;-87
2023/07/04 04:23:37;;;;;;;11.80;8.20;;;;;;;32.17;80.92;100697.66;106268;1254;61614;-85
2023/07/04 04:26:25;;;;;;;10.90;7.20;;;;;;;32.34;78.45;100693.23;106523;1256;61080;-86
2023/07/04 04:29:15;;;;;;;9.80;7.50;;;;;;;32.52;75.32;100695.54;106476;1255;64668;-86
2023/07/04 04:32:03;;;;;;;14.80;7.50;;;;;;;32.60;74.17;100697.78;106519;1253;61099;-87
2023/07/04 04:34:52;;;;;;;10.20;6.40;;;;;;;32.72;74.08;100696.33;106384;1254;63827;-87
2023/07/04 04:37:40;;;;;;;11.70;6.00;;;;;;;33.00;70.27;100690.09;106489;1253;61349;-87
2023/07/04 04:40:28;;;;;;;8.70;5.90;;;;;;;33.04;65.10;100687.27;106449;1254;61330;-88
2023/07/04 04:43:16;;;;;;;8.70;5.10;;;;;;;32.90;63.08;100695.16;106336;1254;65822;-87
2023/07/04 04:46:04;;;;;;;7.80;5.00;;;;;;;32.99;58.01;100695.52;106458;1254;61160;-86
2023/07/04 04:48:52;;;;;;;7.30;5.20;;;;;;;33.17;53.51;100698.98;106491;1254;63781;-86
2023/07/04 04:51:40;;;;;;;7.70;5.40;;;;;;;33.23;50.47;100696.14;106409;1254;61256;-86
2023/07/04 04:54:30;;;;;;;10.50;5.50;;;;;;;33.33;51.03;100698.96;106686;1256;61016;-86
2023/07/04 04:57:17;;;;;;;9.70;5.40;;;;;;;33.42;49.39;100707.39;106601;1253;64859;-87
2023/07/04 05:00:07;;;;;;;8.40;5.50;;;;;;;33.47;49.10;100713.54;106362;1254;61368;-86
2023/07/04 05:02:56;;;;;;;7.70;5.20;;;;;;;33.55;48.93;100714.36;106330;1254;62936;-87
2023/07/04 05:05:44;;;;;;;9.00;5.50;;;;;;;33.63;48.25;100715.77;106812;1255;61321;-86
2023/07/04 05:08:32;;;;;;;7.90;5.30;;;;;;;33.62;46.41;100717.66;106245;1254;61164;-86
2023/07/04 05:11:20;;;;;;;6.70;5.20;;;;;;;33.65;47.79;100722.63;106390;1256;65972;-87
2023/07/04 05:14:08;;;;;;;9.50;5.60;;;;;;;33.78;47.56;100727.17;106289;1254;61295;-86
2023/07/04 05:16:56;;;;;;;8.50;5.70;;;;;;;33.84;46.51;100726.98;106298;1256;64039;-85
2023/07/04 05:19:47;;;;;;;9.30;5.60;;;;;;;34.01;44.89;100731.99;106309;1254;61243;-87
2023/07/04 05:22:35;;;;;;;8.10;5.40;;;;;;;34.12;43.97;100734.33;107129;1253;61251;-85
2023/07/04 05:25:23;;;;;;;8.00;5.10;;;;;;;34.08;43.75;100736.98;106364;1252;64735;-86
2023/07/04 05:28:11;;;;;;;7.10;5.40;;;;;;;34.06;43.74;100735.10;106342;1254;61340;-86
2023/07/04 05:31:00;;;;;;;8.30;5.20;;;;;;;34.17;42.71;100736.66;106295;1254;64494;-86
2023/07/04 05:33:48;;;;;;;9.50;5.80;;;;;;;34.19;42.14;100736.55;106368;1251;61221;-87
2023/07/04 05:36:37;;;;;;;7.70;5.60;;;;;;;34.27;41.82;100739.30;106276;1257;61237;-86
2023/07/04 05:39:25;;;;;;;12.60;5.70;;;;;;;34.36;41.62;100740.67;106306;1254;64898;-86
2023/07/04 05:42:12;;;;;;;9.80;5.30;;;;;;;34.46;41.57;100740.13;106406;1253;61189;-86
2023/07/04 05:45:01;;;;;;;8.70;5.60;;;;;;;34.46;39.77;100740.61;106523;1254;64690;-87
2023/07/04 05:47:49;;;;;;;6.50;4.90;;;;;;;34.48;39.89;100743.08;106334;1253;61268;-87
2023/07/04 05:50:38;;;;;;;10.20;5.30;;;;;;;34.58;39.11;100743.86;106412;1254;61288;-86
2023/07/04 05:53:30;;;;;;;7.10;5.10;;;;;;;34.75;39.89;100747.16;106609;1254;65736;-87
2023/07/04 05:56:19;;;;;;;8.10;4.80;;;;;;;34.94;38.56;100744.69;106397;1255;61247;-87
2023/07/04 05:59:08;;;;;;;8.60;5.50;;;;;;;35.06;38.71;100752.62;106296;1252;64089;-87
2023/07/04 06:01:58;;;;;;;8.50;5.40;;;;;;;35.15;38.10;100755.92;106716;1254;61291;-86
2023/07/04 06:04:52;;;;;;;6.90;5.00;;;;;;;35.15;38.00;100756.09;106702;1253;61242;-89
2023/07/04 06:07:46;;;;;;;9.70;4.80;;;;;;;35.16;37.72;100759.96;106393;1253;66062;-88
2023/07/04 06:10:37;;;;;;;6.40;4.80;;;;;;;35.34;38.53;100762.27;106298;1259;70347;-87
2023/07/04 06:13:28;;;;;;;7.50;5.40;;;;;;;35.56;37.32;100762.73;106404;1251;65099;-88
2023/07/04 06:16:17;;;;;;;10.80;5.00;;;;;;;35.64;37.34;100761.39;106383;1253;61381;-88
2023/07/04 06:19:05;;;;;;;8.20;5.00;;;;;;;35.72;37.05;100758.98;106286;1254;61317;-87
2023/07/04 06:21:54;;;;;;;8.60;5.10;;;;;;;35.80;36.17;100762.14;106479;1254;67854;-88
2023/07/04 06:24:46;;;;;;;8.40;5.70;;;;;;;35.82;36.54;100761.42;106700;1254;61250;-87
2023/07/04 06:27:34;;;;;;;9.00;4.80;;;;;;;35.91;36.31;100769.62;106481;1254;63967;-88
2023/07/04 06:30:25;;;;;;;8.20;5.30;;;;;;;36.04;35.23;100770.60;106516;1255;61237;-86
2023/07/04 06:33:15;;;;;;;8.00;4.80;;;;;;;36.24;34.77;100766.88;106430;1251;61233;-87
2023/07/04 06:36:09;;;;;;;8.10;5.50;;;;;;;36.36;33.86;100771.02;106544;1253;67111;-88
2023/07/04 06:39:13;;;;;;;7.50;4.70;;;;;;;36.44;33.04;100771.20;106316;1254;61345;-89
2023/07/04 06:42:03;;;;;;;10.90;5.00;;;;;;;36.54;32.99;100768.70;106548;1256;64873;-85
2023/07/04 06:44:54;;;;;;;6.80;5.50;;;;;;;36.64;32.81;100771.27;106353;1254;61228;-86
2023/07/04 06:47:47;;;;;;;9.30;4.70;;;;;;;36.72;32.75;100766.72;106383;1254;61238;-87
2023/07/04 06:50:35;;;;;;;10.30;5.10;;;;;;;36.91;32.10;100771.83;106391;1256;66045;-88
2023/07/04 06:53:24;;;;;;;7.60;4.50;;;;;;;36.95;31.89;100770.25;106558;1254;61349;-88
2023/07/04 06:56:18;;;;;;;7.00;4.70;;;;;;;36.95;31.42;100765.52;106276;1253;62977;-87
2023/07/04 06:59:06;;;;;;;7.10;4.70;;;;;;;36.87;30.61;100765.30;107136;1255;61235;-87
2023/07/04 07:01:55;;;;;;;8.50;4.80;;;;;;;36.74;31.33;100766.36;106428;1256;61334;-86
2023/07/04 07:04:43;;;;;;;6.20;4.30;;;;;;;36.74;31.26;100765.93;106639;1254;65926;-87
2023/07/04 07:07:33;;;;;;;8.20;4.50;;;;;;;36.80;32.07;100765.35;106472;1255;61282;-86
2023/07/04 07:10:22;;;;;;;7.90;4.60;;;;;;;36.92;31.26;100760.83;106163;1257;64055;-86
2023/07/04 07:13:10;;;;;;;7.10;4.50;;;;;;;37.11;30.29;100759.11;106380;1256;61366;-87
2023/07/04 07:16:09;;;;;;;9.30;3.70;;;;;;;37.27;30.01;100758.86;106577;1253;61612;-87
2023/07/04 07:18:57;;;;;;;7.50;4.30;;;;;;;37.42;29.76;100759.88;106574;1254;67168;-88
2023/07/04 07:21:49;;;;;;;;;;;;;;;37.55;28.68;100760.20;106482;1254;61330;-87
2023/07/04 07:24:38;;;;;;;7.90;4.30;;;;;;;37.82;28.36;100763.21;106403;1254;64964;-87
2023/07/04 07:27:27;;;;;;;7.70;3.80;;;;;;;37.94;27.56;100763.84;106532;1254;61155;-88
2023/07/04 07:30:21;;;;;;;7.30;4.00;;;;;;;37.82;28.02;100765.06;106540;1253;61276;-86
2023/07/04 07:33:14;;;;;;;7.30;4.10;;;;;;;37.68;27.67;100764.92;106352;1252;67579;-85
2023/07/04 07:36:21;;;;;;;8.40;4.10;;;;;;;37.70;27.82;100766.06;106414;1256;61369;-85
2023/07/04 07:39:11;;;;;;;9.70;4.70;;;;;;;37.69;27.08;100768.39;106362;1255;64058;-85
2023/07/04 07:42:00;;;;;;;7.70;4.30;;;;;;;37.57;27.02;100763.23;106441;1256;61090;-86
2023/07/04 07:44:48;;;;;;;6.20;4.20;;;;;;;37.53;26.85;100762.71;106593;1254;61157;-86
2023/07/04 07:47:36;;;;;;;6.10;4.00;;;;;;;37.52;27.52;100767.98;106315;1259;65995;-86
2023/07/04 07:50:24;;;;;;;11.90;3.90;;;;;;;37.81;27.66;100770.63;106372;1256;61564;-84
2023/07/04 07:53:13;;;;;;;7.10;4.20;;;;;;;38.18;27.06;100767.80;106423;1254;64061;-85
2023/07/04 07:56:03;;;;;;;7.90;4.30;;;;;;;38.33;26.64;100768.32;106385;1253;61250;-84
2023/07/04 07:58:51;;;;;;;6.30;4.10;;;;;;;38.39;26.63;100767.70;106518;1253;61128;-83
2023/07/04 08:01:39;;;;;;;7.80;4.10;;;;;;;38.33;26.30;100767.00;106503;1256;66078;-83
2023/07/04 08:04:27;;;;;;;7.70;4.00;;;;;;;38.31;26.19;100770.25;106400;1255;61279;-84
2023/07/04 08:07:15;;;;;;;5.70;3.80;;;;;;;38.36;25.59;100766.26;106512;1253;62802;-83
2023/07/04 08:10:03;;;;;;;5.80;3.70;;;;;;;38.44;25.25;100769.21;106654;1254;61220;-86
2023/07/04 08:12:51;;;;;;;5.70;4.10;;;;;;;38.34;25.08;100768.42;106773;1256;61229;-86
2023/07/04 08:15:39;;;;;;;5.40;4.10;;;;;;;38.26;24.88;100772.74;106448;1255;64528;-84
2023/07/04 08:18:27;;;;;;;9.50;4.00;;;;;;;38.17;24.47;100777.81;106498;1255;61125;-85
2023/07/04 08:21:16;;;;;;;6.40;3.80;;;;;;;37.91;24.85;100769.42;106748;1253;64064;-86
2023/07/04 08:24:10;;;;;;;5.30;4.20;;;;;;;37.92;24.91;100771.81;106519;1253;61240;-84
2023/07/04 08:26:58;;;;;;;6.60;4.10;;;;;;;38.03;25.07;100769.23;106507;1254;61227;-85
2023/07/04 08:29:49;;;;;;;6.90;3.80;;;;;;;38.08;25.27;100765.73;106503;1255;66066;-86
2023/07/04 08:32:37;;;;;;;7.80;3.90;;;;;;;38.21;24.05;100768.20;106536;1252;61003;-84
2023/07/04 08:35:25;;;;;;;4.60;3.40;;;;;;;38.18;24.18;100770.67;106531;1257;72568;-86
2023/07/04 08:38:13;;;;;;;4.70;3.50;;;;;;;38.31;23.81;100771.67;106378;1253;61314;-86
2023/07/04 08:41:19;;;;;;;5.90;3.80;;;;;;;38.40;23.84;100776.54;106494;1251;61298;-84
2023/07/04 08:44:09;;;;;;;6.80;3.30;;;;;;;38.40;23.97;100781.13;106499;1254;65305;-84
2023/07/04 08:46:57;;;;;;;7.70;3.70;;;;;;;38.39;24.30;100779.83;106240;1259;61237;-85
2023/07/04 08:50:03;;;;;;;7.90;3.90;;;;;;;38.51;24.39;100777.86;106640;1256;64094;-85
2023/07/04 08:52:55;;;;;;;6.10;3.50;;;;;;;38.63;24.14;100782.01;106515;1253;61106;-84
2023/07/04 08:55:45;;;;;;;;;;;;;;;38.71;23.72;100782.23;106482;1254;61250;-84
2023/07/04 08:58:38;;;;;;;5.30;3.60;;;;;;;38.71;23.56;100781.35;106483;1254;64887;-85
2023/07/04 09:01:35;;;;;;;5.90;3.80;;;;;;;38.84;23.25;100780.77;106442;1257;61173;-84
2023/07/04 09:04:47;;;;;;;4.80;3.50;;;;;;;38.98;22.95;100783.77;106506;1254;64131;-85
2023/07/04 09:07:40;;;;;;;7.00;3.70;;;;;;;38.91;23.15;100778.61;106417;1257;61243;-85
2023/07/04 09:10:32;;;;;;;7.10;3.80;;;;;;;38.95;23.23;100774.89;106759;1254;61174;-84
2023/07/04 09:13:31;;;;;;;7.20;4.10;;;;;;;39.06;23.30;100778.95;106385;1254;66381;-85
2023/07/04 09:16:24;;;;;;;8.30;4.20;;;;;;;39.08;23.49;100778.11;106525;1257;61086;-86
2023/07/04 09:19:12;;;;;;;8.90;4.40;;;;;;;39.20;23.64;100778.47;106851;1256;65587;-85
2023/07/04 09:22:03;;;;;;;6.20;3.50;;;;;;;39.29;23.05;100777.27;106570;1257;61138;-84
2023/07/04 09:24:51;;;;;;;4.50;3.60;;;;;;;39.55;22.63;100775.55;106549;1254;61349;-85
2023/07/04 09:27:39;;;;;;;6.20;3.70;;;;;;;39.79;22.50;100777.09;106544;1255;65853;-85
2023/07/04 09:30:28;;;;;;;5.70;3.80;;;;;;;39.62;22.81;100774.86;106353;1256;61265;-85
2023/07/04 09:33:17;;;;;;;8.60;4.00;;;;;;;39.41;22.80;100774.11;106436;1265;64030;-85
2023/07/04 09:36:06;;;;;;;6.80;3.80;;;;;;;39.23;23.11;100773.91;106234;1252;61163;-85
2023/07/04 09:39:00;;;;;;;4.60;3.70;;;;;;;39.20;23.30;100773.96;106365;1254;61270;-85
2023/07/04 09:41:59;;;;;;;6.00;3.70;;;;;;;39.10;23.09;100769.33;106349;1256;66529;-85
2023/07/04 09:44:55;;;;;;;6.00;4.30;;;;;;;38.98;22.98;100765.38;106358;1256;61349;-87
2023/07/04 09:47:46;;;;;;;6.10;3.90;;;;;;;38.87;23.28;100762.86;106650;1256;63955;-86
2023/07/04 09:50:36;;;;;;;7.90;3.80;;;;;;;38.98;23.59;100764.63;106465;1254;61232;-85
2023/07/04 09:53:25;;;;;;;6.10;3.80;;;;;;;39.11;23.23;100764.63;106376;1254;61356;-86
2023/07/04 09:56:24;;;;;;;8.00;3.40;;;;;;;39.18;23.21;100764.50;106609;1253;64921;-86
2023/07/04 09:59:14;;;;;;;5.90;3.60;;;;;;;39.05;23.11;100761.59;106509;1257;61289;-86
2023/07/04 10:02:12;;;;;;;5.10;3.60;;;;;;;38.98;23.45;100762.89;106262;1258;62764;-86
2023/07/04 10:05:00;;;;;;;10.00;3.60;;;;;;;39.05;23.14;100761.92;106393;1257;61349;-86
2023/07/04 10:07:59;;;;;;;5.00;3.40;;;;;;;39.13;23.10;100759.78;106504;1257;61249;-86
2023/07/04 10:10:52;;;;;;;7.80;3.70;;;;;;;39.11;23.03;100762.98;106536;1255;64711;-86
2023/07/04 10:13:41;;;;;;;5.90;3.50;;;;;;;39.12;23.57;100765.23;106567;1256;61351;-87
2023/07/04 10:16:30;;;;;;;6.50;3.60;;;;;;;39.16;23.52;100764.33;106445;1254;63951;-86
2023/07/04 10:19:22;;;;;;;9.40;3.60;;;;;;;39.23;23.36;100766.26;106557;1256;61344;-86
2023/07/04 10:22:33;;;;;;;5.80;3.50;;;;;;;39.21;22.73;100762.73;106639;1255;61343;-87
2023/07/04 10:25:31;;;;;;;6.50;3.70;;;;;;;39.05;23.05;100764.95;106505;1257;64591;-87
2023/07/04 10:28:20;;;;;;;6.20;3.60;;;;;;;38.95;23.30;100763.89;106541;1256;61245;-87
2023/07/04 10:31:12;;;;;;;7.60;3.60;;;;;;;38.84;22.72;100760.84;106447;1257;62616;-87
2023/07/04 10:34:02;;;;;;;7.10;4.00;;;;;;;38.67;23.00;100761.10;106822;1256;61244;-88
2023/07/04 10:36:57;;;;;;;7.50;3.80;;;;;;;38.70;23.13;100759.77;106786;1254;61228;-86
2023/07/04 10:39:57;;;;;;;5.90;3.60;;;;;;;38.84;23.20;100762.16;106613;1254;66157;-87
2023/07/04 10:43:03;;;;;;;5.70;3.10;;;;;;;39.01;23.04;100761.15;106453;1254;61863;-86
2023/07/04 10:45:50;;;;;;;7.20;3.70;;;;;;;39.12;23.29;100759.33;106515;1254;64988;-86
2023/07/04 10:48:49;;;;;;;7.10;3.70;;;;;;;39.34;23.29;100757.56;106565;1259;61362;-85
2023/07/04 10:51:38;;;;;;;5.20;3.40;;;;;;;39.49;23.21;100757.94;106619;1258;61153;-86
2023/07/04 10:54:26;;;;;;;5.00;3.40;;;;;;;39.54;23.32;100753.69;108310;1254;64902;-86
2023/07/04 10:57:22;;;;;;;5.70;3.30;;;;;;;39.60;23.20;100756.21;106618;1260;61355;-86
2023/07/04 11:00:25;;;;;;;5.80;3.40;;;;;;;39.72;23.00;100753.27;106566;1259;63877;-85
2023/07/04 11:03:24;;;;;;;6.30;3.80;;;;;;;39.70;22.42;100753.59;106667;1257;61445;-85
2023/07/04 11:06:19;;;;;;;5.30;3.70;;;;;;;39.68;21.98;100757.94;106535;1253;61333;-86
2023/07/04 11:09:12;;;;;;;6.90;3.50;;;;;;;39.56;21.51;100757.16;106679;1257;66592;-88
2023/07/04 11:12:02;;;;;;;7.90;3.70;;;;;;;39.56;22.53;100754.36;108129;1252;59842;-86
2023/07/04 11:14:58;;;;;;;6.30;3.40;;;;;;;39.70;22.45;100756.29;106477;1256;64051;-87
2023/07/04 11:17:46;;;;;;;5.90;3.80;;;;;;;39.67;21.80;100761.81;106445;1253;61244;-87
2023/07/04 11:20:38;;;;;;;5.10;3.20;;;;;;;39.63;21.67;100758.89;106687;1257;61104;-87
2023/07/04 11:23:50;;;;;;;5.80;3.70;;;;;;;39.62;21.74;100762.79;106494;1255;64510;-87
2023/07/04 11:26:49;;;;;;;7.70;3.20;;;;;;;39.69;22.09;100759.77;106582;1253;61254;-84
2023/07/04 11:29:57;;;;;;;6.00;3.20;;;;;;;39.98;22.11;100767.52;106694;1251;63998;-86
2023/07/04 11:32:55;;;;;;;4.60;3.30;;;;;;;40.25;21.54;100768.40;106232;1254;61246;-85
2023/07/04 11:35:44;;;;;;;6.10;4.10;;;;;;;40.42;21.12;100761.06;106603;1255;59712;-85
2023/07/04 11:38:33;;;;;;;7.30;3.30;;;;;;;40.74;20.64;100760.50;106640;1257;67151;-85
2023/07/04 11:41:33;;;;;;;4.70;3.60;;;;;;;40.99;20.20;100756.36;106403;1254;61322;-87
2023/07/04 11:44:30;;;;;;;5.30;3.40;;;;;;;41.23;20.25;100755.66;106506;1253;62876;-86
2023/07/04 11:47:33;;;;;;;6.00;3.20;;;;;;;41.33;20.61;100751.98;106470;1254;61231;-87
2023/07/04 11:50:36;;;;;;;5.10;3.60;;;;;;;41.25;20.14;100750.40;107120;1254;61234;-85
2023/07/04 11:53:25;;;;;;;4.50;3.20;;;;;;;41.18;20.31;100748.88;106352;1258;66104;-85
2023/07/04 11:56:18;;;;;;;5.30;3.60;;;;;;;41.18;20.42;100745.06;106523;1257;61222;-84
2023/07/04 11:59:18;;;;;;;7.20;3.40;;;;;;;41.11;19.96;100743.48;106321;1254;64597;-86
2023/07/04 12:02:11;;;;;;;4.50;2.80;;;;;;;40.97;19.91;100738.83;106356;1254;61353;-87
2023/07/04 12:05:00;;;;;;;6.00;3.50;;;;;;;40.86;20.15;100735.80;106693;1254;61263;-85
2023/07/04 12:07:49;;;;;;;4.30;2.90;;;;;;;40.74;20.27;100741.59;106765;1254;67335;-84
2023/07/04 12:10:37;;;;;;;6.40;2.80;;;;;;;40.59;20.17;100737.13;106727;1257;61141;-84
2023/07/04 12:13:25;;;;;;;4.70;3.30;;;;;;;40.48;20.25;100736.50;106483;1253;62826;-86
2023/07/04 12:16:13;;;;;;;5.10;3.50;;;;;;;40.36;20.82;100740.08;106314;1254;61351;-83
2023/07/04 12:19:04;;;;;;;5.20;3.60;;;;;;;40.34;21.01;100733.23;106706;1251;61233;-84
2023/07/04 12:21:53;;;;;;;5.90;3.20;;;;;;;40.51;20.87;100732.36;106695;1257;64764;-84
2023/07/04 12:24:41;;;;;;;8.40;3.70;;;;;;;40.72;20.31;100731.02;106554;1254;61167;-83
2023/07/04 12:27:29;;;;;;;7.90;3.40;;;;;;;41.07;19.83;100730.84;106632;1251;63918;-87
2023/07/04 12:30:18;;;;;;;5.20;3.80;;;;;;;41.37;19.61;100728.58;106356;1257;61291;-84
2023/07/04 12:33:18;;;;;;;6.50;3.40;;;;;;;41.67;19.91;100726.98;106611;1257;61234;-86
2023/07/04 12:36:09;;;;;;;7.00;3.30;;;;;;;42.10;19.56;100725.23;106940;1257;64616;-83
2023/07/04 12:38:58;;;;;;;;;;;;;;;42.71;19.18;100720.11;106645;1255;61375;-86
2023/07/04 12:41:46;;;;;;;9.40;4.00;;;;;;;43.26;18.84;100718.52;106451;1256;64075;-85
2023/07/04 12:44:36;;;;;;;6.30;3.40;;;;;;;43.73;18.64;100714.77;106411;1255;61219;-85
2023/07/04 12:47:31;;;;;;;4.70;3.50;;;;;;;43.59;18.48;100713.65;106550;1252;61148;-85
2023/07/04 12:50:20;;;;;;;3.60;2.80;;;;;;;43.38;18.50;100710.30;106546;1257;64915;-84
2023/07/04 12:53:08;;;;;;;6.70;4.00;;;;;;;43.41;18.21;100712.38;106315;1259;61363;-84
2023/07/04 12:55:59;;;;;;;6.50;3.50;;;;;;;43.26;18.17;100714.92;106386;1254;64008;-85
2023/07/04 12:58:47;;;;;;;5.00;3.50;;;;;;;43.17;18.37;100708.11;106158;1253;61339;-86
2023/07/04 13:01:37;;;;;;;5.60;3.30;;;;;;;43.41;18.57;100706.55;106397;1254;61345;-84
2023/07/04 13:04:25;;;;;;;4.70;3.10;;;;;;;43.61;18.24;100705.02;106418;1254;65935;-85
2023/07/04 13:07:13;;;;;;;4.70;3.00;;;;;;;43.56;17.80;100706.65;106338;1255;61326;-85
2023/07/04 13:10:03;;;;;;;4.30;3.10;;;;;;;43.46;17.97;100698.67;106692;1251;63888;-88
2023/07/04 13:12:53;;;;;;;8.00;3.20;;;;;;;43.38;18.70;100699.41;106489;1254;61374;-87
2023/07/04 13:15:41;;;;;;;4.60;3.30;;;;;;;43.44;18.98;100699.05;106510;1258;61340;-86
2023/07/04 13:18:31;;;;;;;6.50;3.40;;;;;;;43.43;18.82;100698.85;106612;1253;64813;-86
2023/07/04 13:21:33;;;;;;;5.70;3.40;;;;;;;43.58;18.59;100697.79;107483;1254;61324;-86
